createdAt,value
2017-08-04T00:00:43.094Z,6.1
2017-08-04T00:01:45.935Z,6.2
2017-08-04T00:02:48.384Z,6.1
2017-08-04T00:03:51.172Z,6.1
2017-08-04T00:04:53.973Z,6.1
2017-08-04T00:05:56.426Z,6.1
2017-08-04T00:06:58.876Z,6.1
2017-08-04T00:08:01.325Z,6.1
2017-08-04T00:09:04.477Z,6.1
2017-08-04T00:10:07.629Z,6.1
2017-08-04T00:11:10.088Z,6.1
2017-08-04T00:12:12.550Z,6.1
2017-08-04T00:13:15.006Z,6.1
2017-08-04T00:14:18.473Z,6.1
2017-08-04T00:15:20.922Z,6.1
2017-08-04T00:16:24.073Z,6.1
2017-08-04T00:17:26.529Z,6.1
2017-08-04T00:18:29.330Z,6.1
2017-08-04T00:19:31.775Z,6.1
2017-08-04T00:20:34.224Z,6.1
2017-08-04T00:21:37.063Z,6.1
2017-08-04T00:22:40.196Z,6.1
2017-08-04T00:23:42.991Z,6.1
2017-08-04T00:24:45.780Z,6.1
2017-08-04T00:25:48.211Z,6.1
2017-08-04T00:26:51.008Z,6.1
2017-08-04T00:27:53.803Z,6.1
2017-08-04T00:28:56.597Z,6.1
2017-08-04T00:29:59.074Z,6.1
2017-08-04T00:31:01.536Z,6.1
2017-08-04T00:32:04.677Z,6
2017-08-04T00:33:07.463Z,6.1
2017-08-04T00:34:10.272Z,6.1
2017-08-04T00:35:12.711Z,6.1
2017-08-04T00:36:15.178Z,6.1
2017-08-04T00:37:17.955Z,6.1
2017-08-04T00:38:20.748Z,6.1
2017-08-04T00:39:23.204Z,6
2017-08-04T00:40:25.653Z,6.1
2017-08-04T00:41:28.775Z,6
2017-08-04T00:42:31.574Z,6
2017-08-04T00:43:34.362Z,6.1
2017-08-04T00:44:36.806Z,6.1
2017-08-04T00:45:39.248Z,6
2017-08-04T00:46:42.038Z,6
2017-08-04T00:47:44.823Z,6
2017-08-04T00:48:47.271Z,6.1
2017-08-04T00:49:50.065Z,6.1
2017-08-04T00:50:52.513Z,6.1
2017-08-04T00:51:54.971Z,6
2017-08-04T00:52:57.770Z,6.1
2017-08-04T00:54:00.907Z,6
2017-08-04T00:55:04.387Z,6
2017-08-04T00:56:06.841Z,6.1
2017-08-04T00:57:09.283Z,6
2017-08-04T00:58:11.739Z,6
2017-08-04T00:59:14.198Z,6.1
2017-08-04T01:00:16.981Z,6
2017-08-04T01:01:19.789Z,6
2017-08-04T01:02:22.571Z,6.1
2017-08-04T01:03:25.353Z,6.1
2017-08-04T01:04:27.798Z,6.1
2017-08-04T01:05:30.613Z,6
2017-08-04T01:06:33.099Z,6
2017-08-04T01:07:35.557Z,6
2017-08-04T01:08:38.003Z,6
2017-08-04T01:09:41.132Z,6
2017-08-04T01:10:44.605Z,6
2017-08-04T01:11:47.061Z,6.1
2017-08-04T01:12:49.511Z,6
2017-08-04T01:13:51.965Z,6
2017-08-04T01:14:54.414Z,6
2017-08-04T01:15:57.554Z,6
2017-08-04T01:17:00.338Z,6.1
2017-08-04T01:18:03.805Z,6
2017-08-04T01:19:06.588Z,6.1
2017-08-04T01:20:09.373Z,6
2017-08-04T01:21:11.834Z,6
2017-08-04T01:22:14.638Z,6
2017-08-04T01:23:17.083Z,6
2017-08-04T01:24:19.533Z,6
2017-08-04T01:25:21.966Z,6
2017-08-04T01:26:24.419Z,6
2017-08-04T01:27:26.885Z,6
2017-08-04T01:28:29.349Z,6
2017-08-04T01:29:31.802Z,6
2017-08-04T01:30:34.248Z,6
2017-08-04T01:31:36.695Z,6
2017-08-04T01:32:39.155Z,6
2017-08-04T01:33:41.598Z,6
2017-08-04T01:34:44.072Z,6
2017-08-04T01:35:46.528Z,6
2017-08-04T01:36:48.992Z,6.1
2017-08-04T01:37:51.777Z,6
2017-08-04T01:38:54.579Z,6
2017-08-04T01:39:57.021Z,6
2017-08-04T01:40:59.471Z,6
2017-08-04T01:42:01.941Z,6
2017-08-04T01:43:05.091Z,6
2017-08-04T01:44:07.554Z,6
2017-08-04T01:45:10.340Z,6
2017-08-04T01:46:13.478Z,6
2017-08-04T01:47:15.924Z,6
2017-08-04T01:48:18.718Z,6
2017-08-04T01:49:21.851Z,6
2017-08-04T01:50:24.293Z,6
2017-08-04T01:51:26.752Z,6
2017-08-04T01:52:29.199Z,6
2017-08-04T01:53:31.974Z,6
2017-08-04T01:54:34.768Z,6
2017-08-04T01:55:37.905Z,6
2017-08-04T01:56:40.351Z,5.9
2017-08-04T01:57:43.490Z,6
2017-08-04T01:58:46.971Z,5.9
2017-08-04T01:59:49.485Z,6
2017-08-04T02:00:51.939Z,6
2017-08-04T02:01:54.412Z,6
2017-08-04T02:02:56.869Z,6
2017-08-04T02:03:59.333Z,6
2017-08-04T02:05:02.118Z,6
2017-08-04T02:06:05.929Z,6
2017-08-04T02:07:08.714Z,6
2017-08-04T02:08:11.146Z,6
2017-08-04T02:09:14.962Z,6
2017-08-04T02:10:17.763Z,6
2017-08-04T02:11:20.220Z,5.9
2017-08-04T02:12:23.009Z,5.9
2017-08-04T02:13:25.458Z,6
2017-08-04T02:14:28.259Z,5.9
2017-08-04T02:15:31.383Z,5.9
2017-08-04T02:16:33.829Z,5.9
2017-08-04T02:17:36.657Z,5.9
2017-08-04T02:18:39.447Z,5.9
2017-08-04T02:19:41.919Z,5.9
2017-08-04T02:20:44.720Z,5.9
2017-08-04T02:21:47.170Z,6
2017-08-04T02:22:50.648Z,6
2017-08-04T02:23:53.105Z,5.9
2017-08-04T02:24:55.556Z,6
2017-08-04T02:25:58.009Z,5.9
2017-08-04T02:27:00.462Z,5.9
2017-08-04T02:28:03.249Z,6
2017-08-04T02:29:05.697Z,5.9
2017-08-04T02:30:08.138Z,5.9
2017-08-04T02:31:10.616Z,5.9
2017-08-04T02:32:13.080Z,5.9
2017-08-04T02:33:15.537Z,5.9
2017-08-04T02:34:18.002Z,5.9
2017-08-04T02:35:20.458Z,5.9
2017-08-04T02:36:23.242Z,5.9
2017-08-04T02:37:26.034Z,5.9
2017-08-04T02:38:28.492Z,6
2017-08-04T02:39:31.283Z,5.9
2017-08-04T02:40:33.734Z,6
2017-08-04T02:41:36.186Z,5.9
2017-08-04T02:42:38.996Z,5.9
2017-08-04T02:43:41.786Z,5.9
2017-08-04T02:44:45.270Z,5.9
2017-08-04T02:45:48.395Z,5.9
2017-08-04T02:46:51.184Z,5.9
2017-08-04T02:47:53.973Z,5.9
2017-08-04T02:48:57.110Z,5.9
2017-08-04T02:49:59.557Z,5.9
2017-08-04T02:51:02.391Z,5.9
2017-08-04T02:52:05.546Z,5.9
2017-08-04T02:53:09.026Z,5.9
2017-08-04T02:54:11.807Z,5.9
2017-08-04T02:55:14.257Z,5.9
2017-08-04T02:56:16.704Z,5.9
2017-08-04T02:57:19.507Z,5.9
2017-08-04T02:58:21.946Z,5.9
2017-08-04T02:59:24.754Z,5.9
2017-08-04T03:00:27.541Z,5.9
2017-08-04T03:01:30.341Z,5.9
2017-08-04T03:02:32.794Z,5.9
2017-08-04T03:03:35.597Z,5.9
2017-08-04T03:04:38.038Z,5.9
2017-08-04T03:05:41.168Z,5.9
2017-08-04T03:06:43.608Z,5.9
2017-08-04T03:07:46.051Z,5.9
2017-08-04T03:08:48.507Z,5.9
2017-08-04T03:09:51.292Z,5.9
2017-08-04T03:10:54.408Z,5.9
2017-08-04T03:11:56.857Z,5.9
2017-08-04T03:12:59.309Z,5.9
2017-08-04T03:14:02.081Z,5.9
2017-08-04T03:15:04.886Z,5.9
2017-08-04T03:16:07.347Z,5.9
2017-08-04T03:17:09.798Z,5.9
2017-08-04T03:18:12.253Z,5.9
2017-08-04T03:19:14.698Z,5.9
2017-08-04T03:20:17.148Z,5.9
2017-08-04T03:21:20.274Z,6
2017-08-04T03:22:23.053Z,6
2017-08-04T03:23:25.500Z,5.9
2017-08-04T03:24:28.303Z,5.9
2017-08-04T03:25:30.760Z,5.9
2017-08-04T03:26:33.223Z,5.8
2017-08-04T03:27:36.365Z,5.9
2017-08-04T03:28:39.165Z,5.9
2017-08-04T03:29:41.956Z,5.9
2017-08-04T03:30:44.764Z,5.9
2017-08-04T03:31:47.555Z,5.9
2017-08-04T03:32:50.679Z,5.9
2017-08-04T03:33:53.138Z,5.9
2017-08-04T03:34:55.924Z,5.9
2017-08-04T03:35:58.379Z,5.9
2017-08-04T03:37:01.823Z,5.9
2017-08-04T03:38:04.614Z,5.9
2017-08-04T03:39:07.073Z,5.9
2017-08-04T03:40:09.857Z,5.9
2017-08-04T03:41:12.676Z,5.9
2017-08-04T03:42:15.115Z,5.9
2017-08-04T03:43:17.570Z,5.9
2017-08-04T03:44:21.056Z,5.9
2017-08-04T03:45:23.501Z,5.9
2017-08-04T03:46:26.296Z,5.9
2017-08-04T03:47:29.093Z,5.9
2017-08-04T03:48:31.857Z,5.9
2017-08-04T03:49:34.316Z,5.9
2017-08-04T03:50:36.762Z,5.9
2017-08-04T03:51:39.211Z,5.9
2017-08-04T03:52:41.675Z,5.9
2017-08-04T03:53:44.458Z,5.9
2017-08-04T03:54:46.900Z,5.9
2017-08-04T03:55:49.359Z,5.9
2017-08-04T03:56:52.142Z,5.9
2017-08-04T03:57:54.614Z,5.9
2017-08-04T03:58:57.410Z,5.9
2017-08-04T03:59:59.863Z,5.9
2017-08-04T04:01:02.661Z,5.8
2017-08-04T04:02:05.793Z,5.9
2017-08-04T04:03:08.921Z,5.9
2017-08-04T04:04:11.720Z,5.9
2017-08-04T04:05:14.171Z,5.9
2017-08-04T04:06:16.653Z,5.9
2017-08-04T04:07:19.106Z,5.9
2017-08-04T04:08:21.566Z,5.9
2017-08-04T04:09:24.034Z,5.9
2017-08-04T04:10:26.507Z,5.9
2017-08-04T04:11:29.306Z,5.9
2017-08-04T04:12:32.096Z,5.9
2017-08-04T04:13:35.216Z,5.9
2017-08-04T04:14:38.752Z,5.9
2017-08-04T04:15:41.205Z,5.9
2017-08-04T04:16:43.997Z,5.9
2017-08-04T04:17:46.446Z,5.9
2017-08-04T04:18:49.235Z,5.9
2017-08-04T04:19:52.039Z,5.9
2017-08-04T04:20:54.488Z,5.9
2017-08-04T04:21:56.923Z,5.9
2017-08-04T04:22:59.374Z,5.9
2017-08-04T04:24:02.499Z,5.9
2017-08-04T04:25:05.283Z,5.9
2017-08-04T04:26:07.734Z,5.9
2017-08-04T04:27:10.169Z,5.9
2017-08-04T04:28:12.611Z,5.9
2017-08-04T04:29:15.413Z,5.9
2017-08-04T04:30:17.884Z,5.9
2017-08-04T04:31:20.336Z,5.9
2017-08-04T04:32:23.149Z,5.9
2017-08-04T04:33:26.297Z,5.9
2017-08-04T04:34:29.088Z,5.9
2017-08-04T04:35:31.545Z,5.9
2017-08-04T04:36:33.981Z,5.9
2017-08-04T04:37:36.446Z,5.9
2017-08-04T04:38:38.905Z,5.9
2017-08-04T04:39:41.356Z,5.9
2017-08-04T04:40:43.810Z,5.9
2017-08-04T04:41:46.607Z,5.9
2017-08-04T04:42:49.055Z,5.9
2017-08-04T04:43:52.180Z,5.9
2017-08-04T04:44:54.962Z,5.9
2017-08-04T04:45:57.422Z,5.9
2017-08-04T04:47:00.200Z,5.9
2017-08-04T04:48:03.343Z,5.9
2017-08-04T04:49:05.806Z,5.9
2017-08-04T04:50:08.607Z,5.9
2017-08-04T04:51:11.411Z,5.9
2017-08-04T04:52:14.211Z,5.8
2017-08-04T04:53:16.998Z,5.8
2017-08-04T04:54:19.796Z,5.9
2017-08-04T04:55:22.234Z,5.9
2017-08-04T04:56:25.022Z,5.9
2017-08-04T04:57:28.483Z,5.9
2017-08-04T04:58:30.925Z,5.9
2017-08-04T04:59:33.712Z,5.9
2017-08-04T05:00:36.179Z,5.8
2017-08-04T05:01:38.956Z,5.9
2017-08-04T05:02:41.407Z,5.9
2017-08-04T05:03:43.883Z,5.9
2017-08-04T05:04:46.689Z,5.9
2017-08-04T05:05:49.478Z,5.8
2017-08-04T05:06:52.259Z,5.9
2017-08-04T05:07:55.054Z,5.9
2017-08-04T05:08:58.177Z,5.9
2017-08-04T05:10:00.985Z,5.9
2017-08-04T05:11:03.768Z,5.9
2017-08-04T05:12:06.893Z,5.9
2017-08-04T05:13:09.674Z,5.9
2017-08-04T05:14:12.153Z,5.9
2017-08-04T05:15:14.957Z,5.9
2017-08-04T05:16:17.451Z,5.9
2017-08-04T05:17:19.905Z,5.9
2017-08-04T05:18:22.369Z,5.9
2017-08-04T05:19:24.824Z,5.9
2017-08-04T05:20:27.619Z,5.9
2017-08-04T05:21:30.060Z,5.9
2017-08-04T05:22:32.519Z,5.9
2017-08-04T05:23:35.310Z,5.9
2017-08-04T05:24:37.774Z,5.9
2017-08-04T05:25:40.226Z,5.9
2017-08-04T05:26:43.008Z,6
2017-08-04T05:27:45.801Z,5.9
2017-08-04T05:28:48.931Z,5.9
2017-08-04T05:29:52.064Z,5.9
2017-08-04T05:30:54.871Z,5.9
2017-08-04T05:31:57.327Z,5.9
2017-08-04T05:33:00.460Z,5.9
2017-08-04T05:34:03.259Z,5.9
2017-08-04T05:35:05.723Z,5.9
2017-08-04T05:36:08.182Z,5.9
2017-08-04T05:37:10.641Z,5.9
2017-08-04T05:38:13.105Z,5.9
2017-08-04T05:39:15.923Z,5.9
2017-08-04T05:40:18.365Z,5.9
2017-08-04T05:41:21.157Z,5.9
2017-08-04T05:42:23.604Z,5.9
2017-08-04T05:43:26.047Z,5.9
2017-08-04T05:44:28.834Z,5.9
2017-08-04T05:45:31.298Z,5.9
2017-08-04T05:46:34.085Z,5.9
2017-08-04T05:47:36.874Z,6
2017-08-04T05:48:39.670Z,5.9
2017-08-04T05:49:42.135Z,5.9
2017-08-04T05:50:44.615Z,5.9
2017-08-04T05:51:47.131Z,5.9
2017-08-04T05:52:49.912Z,6
2017-08-04T05:53:52.363Z,5.8
2017-08-04T05:54:55.166Z,5.9
2017-08-04T05:55:57.619Z,5.9
2017-08-04T05:57:00.408Z,6
2017-08-04T05:58:02.861Z,5.9
2017-08-04T05:59:06.338Z,6
2017-08-04T06:00:08.815Z,5.9
2017-08-04T06:01:11.961Z,6
2017-08-04T06:02:14.759Z,6
2017-08-04T06:03:17.542Z,5.9
2017-08-04T06:04:19.987Z,5.9
2017-08-04T06:05:22.438Z,6
2017-08-04T06:06:24.897Z,6
2017-08-04T06:07:27.340Z,6
2017-08-04T06:08:29.787Z,6
2017-08-04T06:09:32.638Z,6
2017-08-04T06:10:35.091Z,6
2017-08-04T06:11:37.537Z,6
2017-08-04T06:12:40.004Z,6
2017-08-04T06:13:42.808Z,6
2017-08-04T06:14:45.272Z,6
2017-08-04T06:15:47.718Z,6
2017-08-04T06:16:50.512Z,6
2017-08-04T06:17:52.955Z,6
2017-08-04T06:18:55.761Z,6
2017-08-04T06:19:58.211Z,6
2017-08-04T06:21:00.656Z,6
2017-08-04T06:22:04.138Z,6
2017-08-04T06:23:07.292Z,6.1
2017-08-04T06:24:10.099Z,6
2017-08-04T06:25:12.575Z,6.1
2017-08-04T06:26:15.702Z,6
2017-08-04T06:27:18.172Z,6.1
2017-08-04T06:28:20.962Z,6.1
2017-08-04T06:29:23.419Z,6.1
2017-08-04T06:30:25.868Z,6.1
2017-08-04T06:31:28.326Z,6.1
2017-08-04T06:32:30.773Z,6.1
2017-08-04T06:33:33.231Z,6.1
2017-08-04T06:34:36.020Z,6.1
2017-08-04T06:35:38.486Z,6.1
2017-08-04T06:36:40.932Z,6.1
2017-08-04T06:37:43.393Z,6.1
2017-08-04T06:38:45.848Z,6.1
2017-08-04T06:39:48.296Z,6.1
2017-08-04T06:40:51.092Z,6.1
2017-08-04T06:41:53.543Z,6.1
2017-08-04T06:42:55.982Z,6.1
2017-08-04T06:43:58.451Z,6.1
2017-08-04T06:45:00.926Z,6.1
2017-08-04T06:46:03.378Z,6.1
2017-08-04T06:47:05.840Z,6.2
2017-08-04T06:48:08.972Z,6.1
2017-08-04T06:49:11.771Z,6.1
2017-08-04T06:50:14.244Z,6.1
2017-08-04T06:51:16.718Z,6.2
2017-08-04T06:52:19.515Z,6.1
2017-08-04T06:53:22.998Z,6.1
2017-08-04T06:54:25.803Z,6.1
2017-08-04T06:55:28.265Z,6.2
2017-08-04T06:56:31.057Z,6.2
2017-08-04T06:57:33.490Z,6.1
2017-08-04T06:58:35.944Z,6.1
2017-08-04T06:59:38.410Z,6.2
2017-08-04T07:00:41.203Z,6.1
2017-08-04T07:01:44.008Z,6.2
2017-08-04T07:02:46.452Z,6.1
2017-08-04T07:03:48.902Z,6.1
2017-08-04T07:04:51.713Z,6.1
2017-08-04T07:05:54.182Z,6.1
2017-08-04T07:06:56.651Z,6.2
2017-08-04T07:07:59.116Z,6.2
2017-08-04T07:09:01.585Z,6.1
2017-08-04T07:10:04.381Z,6.1
2017-08-04T07:11:07.197Z,6.2
2017-08-04T07:12:09.663Z,6.2
2017-08-04T07:13:12.462Z,6.2
2017-08-04T07:14:14.920Z,6.1
2017-08-04T07:15:17.384Z,6.1
2017-08-04T07:16:20.173Z,6.1
2017-08-04T07:17:22.652Z,6.1
2017-08-04T07:18:25.092Z,6.1
2017-08-04T07:19:27.551Z,6.1
2017-08-04T07:20:30.358Z,6.1
2017-08-04T07:21:32.812Z,6.1
2017-08-04T07:22:35.280Z,6.1
2017-08-04T07:23:37.747Z,6.1
2017-08-04T07:24:40.202Z,6
2017-08-04T07:25:43.005Z,6.1
2017-08-04T07:26:45.813Z,6.1
2017-08-04T07:27:48.267Z,6.1
2017-08-04T07:28:50.722Z,6.1
2017-08-04T07:29:53.511Z,6.1
2017-08-04T07:30:56.296Z,6.1
2017-08-04T07:31:58.769Z,6.1
2017-08-04T07:33:01.218Z,6.1
2017-08-04T07:34:04.014Z,6.1
2017-08-04T07:35:07.156Z,6.2
2017-08-04T07:36:09.612Z,6.1
2017-08-04T07:37:12.071Z,6.1
2017-08-04T07:38:14.870Z,6.2
2017-08-04T07:39:17.310Z,6.1
2017-08-04T07:40:19.765Z,6.1
2017-08-04T07:41:22.208Z,6.1
2017-08-04T07:42:24.692Z,6.1
2017-08-04T07:43:27.148Z,6.2
2017-08-04T07:44:29.603Z,6.1
2017-08-04T07:45:32.056Z,6.1
2017-08-04T07:46:34.507Z,6.1
2017-08-04T07:47:37.300Z,6.2
2017-08-04T07:48:39.755Z,6.2
2017-08-04T07:49:42.539Z,6.2
2017-08-04T07:50:45.338Z,6.2
2017-08-04T07:51:48.142Z,6.2
2017-08-04T07:52:51.267Z,6.2
2017-08-04T07:53:53.710Z,6.2
2017-08-04T07:54:56.171Z,6.2
2017-08-04T07:55:58.957Z,6.1
2017-08-04T07:57:01.762Z,6.2
2017-08-04T07:58:04.565Z,6.2
2017-08-04T07:59:07.020Z,6.2
2017-08-04T08:00:09.853Z,6.2
2017-08-04T08:01:12.320Z,6.2
2017-08-04T08:02:14.778Z,6.2
2017-08-04T08:03:17.579Z,6.2
2017-08-04T08:04:20.033Z,6.2
2017-08-04T08:05:22.489Z,6.2
2017-08-04T08:06:24.950Z,6.2
2017-08-04T08:07:27.400Z,6.2
2017-08-04T08:08:30.188Z,6.2
2017-08-04T08:09:32.672Z,6.2
2017-08-04T08:10:35.472Z,6.1
2017-08-04T08:11:37.942Z,6.2
2017-08-04T08:12:40.410Z,6.1
2017-08-04T08:13:42.887Z,6.2
2017-08-04T08:14:45.343Z,6.1
2017-08-04T08:15:48.146Z,6.2
2017-08-04T08:16:50.602Z,6.2
2017-08-04T08:17:53.040Z,6.2
2017-08-04T08:18:55.498Z,6.2
2017-08-04T08:19:57.948Z,6.2
2017-08-04T08:21:00.396Z,6.2
2017-08-04T08:22:03.195Z,6.2
2017-08-04T08:23:05.646Z,6.2
2017-08-04T08:24:08.127Z,6.1
2017-08-04T08:25:10.604Z,6.2
2017-08-04T08:26:13.075Z,6.2
2017-08-04T08:27:15.562Z,6.2
2017-08-04T08:28:18.681Z,6.2
2017-08-04T08:29:22.160Z,6.2
2017-08-04T08:30:24.621Z,6.2
2017-08-04T08:31:27.094Z,6.2
2017-08-04T08:32:29.549Z,6.3
2017-08-04T08:33:32.348Z,6.2
2017-08-04T08:34:34.791Z,6.2
2017-08-04T08:35:37.578Z,6.2
2017-08-04T08:36:40.039Z,6.2
2017-08-04T08:37:42.500Z,6.2
2017-08-04T08:38:44.957Z,6.2
2017-08-04T08:39:47.402Z,6.2
2017-08-04T08:40:49.857Z,6.2
2017-08-04T08:41:52.340Z,6.2
2017-08-04T08:42:54.785Z,6.2
2017-08-04T08:43:57.581Z,6.2
2017-08-04T08:45:00.029Z,6.2
2017-08-04T08:46:02.828Z,6.2
2017-08-04T08:47:05.637Z,6.2
2017-08-04T08:48:08.092Z,6.2
2017-08-04T08:49:10.542Z,6.2
2017-08-04T08:50:13.342Z,6.2
2017-08-04T08:51:15.793Z,6.2
2017-08-04T08:52:18.252Z,6.3
2017-08-04T08:53:21.058Z,6.2
2017-08-04T08:54:23.835Z,6.2
2017-08-04T08:55:26.626Z,6.2
2017-08-04T08:56:29.103Z,6.3
2017-08-04T08:57:32.232Z,6.2
2017-08-04T08:58:34.766Z,6.2
2017-08-04T08:59:37.225Z,6.2
2017-08-04T09:00:39.680Z,6.2
2017-08-04T09:01:42.144Z,6.2
2017-08-04T09:02:44.935Z,6.3
2017-08-04T09:03:47.375Z,6.2
2017-08-04T09:04:49.840Z,6.2
2017-08-04T09:05:52.302Z,6.2
2017-08-04T09:06:55.115Z,6.3
2017-08-04T09:07:57.570Z,6.2
2017-08-04T09:09:00.030Z,6.3
2017-08-04T09:10:02.833Z,6.3
2017-08-04T09:11:05.961Z,6.2
2017-08-04T09:12:08.420Z,6.3
2017-08-04T09:13:10.884Z,6.2
2017-08-04T09:14:13.327Z,6.2
2017-08-04T09:15:15.780Z,6.2
2017-08-04T09:16:18.230Z,6.3
2017-08-04T09:17:20.680Z,6.3
2017-08-04T09:18:23.145Z,6.3
2017-08-04T09:19:26.272Z,6.3
2017-08-04T09:20:28.722Z,6.3
2017-08-04T09:21:31.533Z,6.3
2017-08-04T09:22:33.992Z,6.3
2017-08-04T09:23:36.452Z,6.3
2017-08-04T09:24:38.920Z,6.3
2017-08-04T09:25:41.709Z,6.3
2017-08-04T09:26:44.526Z,6.3
2017-08-04T09:27:46.990Z,6.4
2017-08-04T09:28:49.445Z,6.3
2017-08-04T09:29:52.248Z,6.4
2017-08-04T09:30:54.715Z,6.4
2017-08-04T09:31:57.506Z,6.4
2017-08-04T09:32:59.974Z,6.4
2017-08-04T09:34:02.778Z,6.4
2017-08-04T09:35:06.006Z,6.4
2017-08-04T09:36:08.810Z,6.4
2017-08-04T09:37:11.631Z,6.4
2017-08-04T09:38:14.107Z,6.4
2017-08-04T09:39:16.556Z,6.4
2017-08-04T09:40:19.036Z,6.5
2017-08-04T09:41:21.844Z,6.5
2017-08-04T09:42:24.305Z,6.5
2017-08-04T09:43:26.765Z,6.4
2017-08-04T09:44:29.239Z,6.4
2017-08-04T09:45:31.683Z,6.5
2017-08-04T09:46:34.173Z,6.5
2017-08-04T09:47:36.629Z,6.4
2017-08-04T09:48:39.434Z,6.5
2017-08-04T09:49:41.893Z,6.4
2017-08-04T09:50:44.358Z,6.5
2017-08-04T09:51:46.807Z,6.5
2017-08-04T09:52:49.297Z,6.5
2017-08-04T09:53:51.751Z,6.5
2017-08-04T09:54:54.550Z,6.5
2017-08-04T09:55:57.021Z,6.5
2017-08-04T09:56:59.476Z,6.5
2017-08-04T09:58:01.952Z,6.5
2017-08-04T09:59:04.430Z,6.5
2017-08-04T10:00:07.227Z,6.5
2017-08-04T10:01:10.037Z,6.5
2017-08-04T10:02:12.843Z,6.5
2017-08-04T10:03:15.293Z,6.4
2017-08-04T10:04:17.759Z,6.5
2017-08-04T10:05:20.572Z,6.5
2017-08-04T10:06:23.368Z,6.5
2017-08-04T10:07:26.160Z,6.4
2017-08-04T10:08:28.625Z,6.5
2017-08-04T10:09:31.436Z,6.4
2017-08-04T10:10:33.893Z,6.5
2017-08-04T10:11:36.709Z,6.4
2017-08-04T10:12:39.509Z,6.4
2017-08-04T10:13:41.956Z,6.4
2017-08-04T10:14:45.101Z,6.4
2017-08-04T10:15:47.562Z,6.5
2017-08-04T10:16:50.026Z,6.5
2017-08-04T10:17:52.491Z,6.5
2017-08-04T10:18:54.958Z,6.5
2017-08-04T10:19:57.407Z,6.5
2017-08-04T10:21:00.210Z,6.5
2017-08-04T10:22:03.016Z,6.5
2017-08-04T10:23:05.806Z,6.5
2017-08-04T10:24:08.269Z,6.4
2017-08-04T10:25:11.066Z,6.5
2017-08-04T10:26:13.558Z,6.5
2017-08-04T10:27:16.028Z,6.5
2017-08-04T10:28:18.480Z,6.5
2017-08-04T10:29:20.930Z,6.4
2017-08-04T10:30:23.398Z,6.5
2017-08-04T10:31:25.852Z,6.5
2017-08-04T10:32:28.316Z,6.5
2017-08-04T10:33:30.780Z,6.4
2017-08-04T10:34:33.236Z,6.5
2017-08-04T10:35:35.696Z,6.5
2017-08-04T10:36:38.169Z,6.5
2017-08-04T10:37:40.958Z,6.5
2017-08-04T10:38:43.425Z,6.5
2017-08-04T10:39:45.891Z,6.5
2017-08-04T10:40:48.367Z,6.4
2017-08-04T10:41:50.824Z,6.4
2017-08-04T10:42:53.284Z,6.5
2017-08-04T10:43:55.771Z,6.5
2017-08-04T10:44:58.222Z,6.6
2017-08-04T10:46:00.677Z,6.5
2017-08-04T10:47:03.145Z,6.5
2017-08-04T10:48:05.590Z,6.5
2017-08-04T10:49:08.386Z,6.5
2017-08-04T10:50:10.850Z,6.5
2017-08-04T10:51:13.316Z,6.4
2017-08-04T10:52:15.777Z,6.4
2017-08-04T10:53:18.232Z,6.5
2017-08-04T10:54:21.041Z,6.5
2017-08-04T10:55:23.517Z,6.5
2017-08-04T10:56:25.988Z,6.4
2017-08-04T10:57:28.778Z,6.4
2017-08-04T10:58:31.235Z,6.5
2017-08-04T10:59:33.713Z,6.4
2017-08-04T11:00:36.505Z,6.4
2017-08-04T11:01:39.313Z,6.5
2017-08-04T11:02:41.757Z,6.4
2017-08-04T11:03:44.901Z,6.4
2017-08-04T11:04:47.715Z,6.4
2017-08-04T11:05:50.190Z,6.5
2017-08-04T11:06:52.990Z,6.5
2017-08-04T11:07:55.440Z,6.5
2017-08-04T11:08:57.905Z,6.5
2017-08-04T11:10:00.372Z,6.5
2017-08-04T11:11:03.850Z,6.5
2017-08-04T11:12:07.325Z,6.5
2017-08-04T11:13:10.125Z,6.5
2017-08-04T11:14:12.605Z,6.5
2017-08-04T11:15:15.763Z,6.5
2017-08-04T11:16:18.224Z,6.5
2017-08-04T11:17:21.007Z,6.5
2017-08-04T11:18:23.482Z,6.6
2017-08-04T11:19:26.276Z,6.6
2017-08-04T11:20:28.736Z,6.6
2017-08-04T11:21:31.533Z,6.6
2017-08-04T11:22:34.003Z,6.5
2017-08-04T11:23:36.500Z,6.6
2017-08-04T11:24:39.659Z,6.6
2017-08-04T11:25:42.804Z,6.5
2017-08-04T11:26:45.281Z,6.6
2017-08-04T11:27:47.740Z,6.6
2017-08-04T11:28:50.228Z,6.6
2017-08-04T11:29:52.693Z,6.6
2017-08-04T11:30:55.509Z,6.6
2017-08-04T11:31:57.963Z,6.6
2017-08-04T11:33:00.427Z,6.6
2017-08-04T11:34:03.234Z,6.7
2017-08-04T11:35:06.033Z,6.6
2017-08-04T11:36:08.484Z,6.7
2017-08-04T11:37:11.669Z,6.6
2017-08-04T11:38:14.474Z,6.6
2017-08-04T11:39:16.942Z,6.6
2017-08-04T11:40:19.412Z,6.7
2017-08-04T11:41:21.877Z,6.6
2017-08-04T11:42:24.335Z,6.7
2017-08-04T11:43:26.838Z,6.6
2017-08-04T11:44:29.299Z,6.7
2017-08-04T11:45:32.511Z,6.6
2017-08-04T11:46:35.705Z,6.6
2017-08-04T11:47:38.222Z,6.6
2017-08-04T11:48:40.737Z,6.6
2017-08-04T11:49:43.604Z,6.6
2017-08-04T11:50:46.820Z,6.6
2017-08-04T11:51:49.688Z,6.7
2017-08-04T11:52:52.194Z,6.6
2017-08-04T11:53:54.734Z,6.6
2017-08-04T11:54:57.268Z,6.6
2017-08-04T11:55:59.785Z,6.6
2017-08-04T11:57:02.634Z,6.6
2017-08-04T11:58:05.850Z,6.6
2017-08-04T11:59:08.686Z,6.6
2017-08-04T12:00:11.228Z,6.7
2017-08-04T12:01:13.750Z,6.6
2017-08-04T12:02:16.597Z,6.6
2017-08-04T12:03:19.441Z,6.7
2017-08-04T12:04:22.289Z,6.6
2017-08-04T12:05:24.805Z,6.6
2017-08-04T12:06:27.324Z,6.6
2017-08-04T12:07:29.838Z,6.6
2017-08-04T12:08:32.346Z,6.6
2017-08-04T12:09:34.836Z,6.6
2017-08-04T12:10:37.368Z,6.6
2017-08-04T12:11:39.873Z,6.7
2017-08-04T12:12:42.722Z,6.6
2017-08-04T12:13:45.894Z,6.6
2017-08-04T12:14:48.738Z,6.6
2017-08-04T12:15:51.621Z,6.6
2017-08-04T12:16:54.145Z,6.6
2017-08-04T12:17:56.986Z,6.6
2017-08-04T12:18:59.493Z,6.6
2017-08-04T12:20:02.007Z,6.6
2017-08-04T12:21:04.865Z,6.6
2017-08-04T12:22:07.735Z,6.6
2017-08-04T12:23:10.931Z,6.6
2017-08-04T12:24:13.428Z,6.6
2017-08-04T12:25:16.286Z,6.6
2017-08-04T12:26:19.152Z,6.6
2017-08-04T12:27:21.672Z,6.7
2017-08-04T12:28:24.201Z,6.6
2017-08-04T12:29:26.697Z,6.6
2017-08-04T12:30:29.892Z,6.6
2017-08-04T12:31:32.777Z,6.6
2017-08-04T12:32:35.269Z,6.6
2017-08-04T12:33:37.774Z,6.6
2017-08-04T12:34:40.617Z,6.6
2017-08-04T12:35:43.119Z,6.6
2017-08-04T12:36:45.628Z,6.6
2017-08-04T12:37:48.135Z,6.6
2017-08-04T12:38:50.662Z,6.6
2017-08-04T12:39:53.168Z,6.6
2017-08-04T12:40:56.005Z,6.6
2017-08-04T12:41:58.866Z,6.6
2017-08-04T12:43:01.368Z,6.6
2017-08-04T12:44:04.202Z,6.6
2017-08-04T12:45:07.068Z,6.6
2017-08-04T12:46:10.274Z,6.6
2017-08-04T12:47:12.807Z,6.6
2017-08-04T12:48:15.661Z,6.6
2017-08-04T12:49:18.170Z,6.7
2017-08-04T12:50:21.009Z,6.6
2017-08-04T12:51:23.858Z,6.6
2017-08-04T12:52:26.362Z,6.6
2017-08-04T12:53:29.205Z,6.6
2017-08-04T12:54:31.704Z,6.6
2017-08-04T12:55:34.877Z,6.6
2017-08-04T12:56:37.386Z,6.6
2017-08-04T12:57:40.240Z,6.6
2017-08-04T12:58:42.726Z,6.6
2017-08-04T12:59:45.245Z,6.6
2017-08-04T13:00:47.886Z,6.6
2017-08-04T13:01:50.777Z,6.7
2017-08-04T13:02:53.301Z,6.7
2017-08-04T13:03:59.161Z,6.7
2017-08-04T13:05:03.779Z,6.6
2017-08-04T13:06:09.601Z,6.6
2017-08-04T13:07:16.118Z,6.7
2017-08-04T13:08:19.395Z,6.7
2017-08-04T13:09:22.584Z,6.6
2017-08-04T13:10:25.420Z,6.6
2017-08-04T13:11:28.260Z,6.6
2017-08-04T13:12:31.135Z,6.6
2017-08-04T13:13:33.638Z,6.6
2017-08-04T13:14:36.157Z,6.6
2017-08-04T13:15:38.697Z,6.6
2017-08-04T13:16:41.210Z,6.6
2017-08-04T13:17:43.777Z,6.6
2017-08-04T13:18:46.989Z,6.6
2017-08-04T13:19:49.845Z,6.6
2017-08-04T13:20:52.498Z,6.7
2017-08-04T13:21:55.352Z,6.6
2017-08-04T13:22:57.870Z,6.6
2017-08-04T13:24:00.423Z,6.6
2017-08-04T13:25:03.642Z,6.6
2017-08-04T13:26:06.165Z,6.6
2017-08-04T13:27:08.690Z,6.6
2017-08-04T13:28:11.204Z,6.5
2017-08-04T13:29:14.044Z,6.6
2017-08-04T13:30:16.931Z,6.6
2017-08-04T13:31:19.441Z,6.6
2017-08-04T13:32:21.980Z,6.6
2017-08-04T13:33:24.525Z,6.6
2017-08-04T13:34:27.059Z,6.6
2017-08-04T13:35:29.576Z,6.6
2017-08-04T13:36:32.096Z,6.6
2017-08-04T13:37:34.610Z,6.6
2017-08-04T13:38:37.458Z,6.6
2017-08-04T13:39:39.974Z,6.6
2017-08-04T13:40:42.516Z,6.6
2017-08-04T13:41:45.047Z,6.6
2017-08-04T13:42:47.910Z,6.6
2017-08-04T13:43:50.427Z,6.6
2017-08-04T13:44:52.958Z,6.6
2017-08-04T13:45:55.472Z,6.6
2017-08-04T13:46:58.325Z,6.6
2017-08-04T13:48:00.829Z,6.6
2017-08-04T13:49:03.714Z,6.6
2017-08-04T13:50:06.252Z,6.6
2017-08-04T13:51:08.780Z,6.7
2017-08-04T13:52:12.633Z,6.6
2017-08-04T13:53:15.518Z,6.6
2017-08-04T13:54:18.030Z,6.6
2017-08-04T13:55:21.228Z,6.6
2017-08-04T13:56:23.748Z,6.6
2017-08-04T13:57:26.256Z,6.7
2017-08-04T13:58:29.130Z,6.6
2017-08-04T13:59:31.652Z,6.6
2017-08-04T14:00:34.516Z,6.6
2017-08-04T14:01:37.049Z,6.6
2017-08-04T14:02:39.577Z,6.6
2017-08-04T14:03:42.102Z,6.7
2017-08-04T14:04:44.976Z,6.6
2017-08-04T14:05:48.166Z,6.6
2017-08-04T14:06:51.022Z,6.6
2017-08-04T14:07:53.535Z,6.6
2017-08-04T14:08:56.052Z,6.7
2017-08-04T14:09:58.560Z,6.6
2017-08-04T14:11:01.399Z,6.6
2017-08-04T14:12:03.929Z,6.6
2017-08-04T14:13:06.427Z,6.7
2017-08-04T14:14:09.296Z,6.7
2017-08-04T14:15:12.159Z,6.7
2017-08-04T14:16:14.671Z,6.6
2017-08-04T14:17:17.523Z,6.6
2017-08-04T14:18:20.051Z,6.6
2017-08-04T14:19:22.930Z,6.7
2017-08-04T14:20:25.458Z,6.6
2017-08-04T14:21:27.963Z,6.7
2017-08-04T14:22:30.468Z,6.7
2017-08-04T14:23:32.988Z,6.7
2017-08-04T14:24:35.488Z,6.7
2017-08-04T14:25:38.008Z,6.7
2017-08-04T14:26:40.520Z,6.6
2017-08-04T14:27:43.019Z,6.7
2017-08-04T14:28:45.525Z,6.6
2017-08-04T14:29:48.039Z,6.6
2017-08-04T14:30:50.871Z,6.6